sensor_id;sensor_type;location;lat;lon;timestamp;P1;durP1;ratioP1;P2;durP2;ratioP2
72755;SDS011;60881;55.002;73.232;2022-09-21T00:01:28;91.03;;;31.13;;
72755;SDS011;60881;55.002;73.232;2022-09-21T00:04:00;92.03;;;31.92;;
72755;SDS011;60881;55.002;73.232;2022-09-21T00:06:33;82.55;;;30.48;;
72755;SDS011;60881;55.002;73.232;2022-09-21T00:08:59;81.63;;;31.63;;
72755;SDS011;60881;55.002;73.232;2022-09-21T00:11:35;97.15;;;31.13;;
72755;SDS011;60881;55.002;73.232;2022-09-21T00:14:09;98.53;;;30.77;;
72755;SDS011;60881;55.002;73.232;2022-09-21T00:16:39;110.65;;;32.10;;
72755;SDS011;60881;55.002;73.232;2022-09-21T00:19:07;88.03;;;30.63;;
72755;SDS011;60881;55.002;73.232;2022-09-21T00:21:34;92.07;;;30.98;;
72755;SDS011;60881;55.002;73.232;2022-09-21T00:24:00;92.38;;;32.22;;
72755;SDS011;60881;55.002;73.232;2022-09-21T00:26:37;84.38;;;30.55;;
72755;SDS011;60881;55.002;73.232;2022-09-21T00:29:04;103.15;;;30.92;;
72755;SDS011;60881;55.002;73.232;2022-09-21T00:31:32;94.88;;;31.20;;
72755;SDS011;60881;55.002;73.232;2022-09-21T00:33:59;91.60;;;31.88;;
72755;SDS011;60881;55.002;73.232;2022-09-21T00:36:27;87.25;;;30.42;;
72755;SDS011;60881;55.002;73.232;2022-09-21T00:38:55;82.22;;;29.83;;
72755;SDS011;60881;55.002;73.232;2022-09-21T00:41:24;83.18;;;32.20;;
72755;SDS011;60881;55.002;73.232;2022-09-21T00:46:56;105.85;;;32.42;;
72755;SDS011;60881;55.002;73.232;2022-09-21T00:49:26;101.57;;;31.73;;
72755;SDS011;60881;55.002;73.232;2022-09-21T00:51:54;99.45;;;32.38;;
72755;SDS011;60881;55.002;73.232;2022-09-21T00:54:45;114.60;;;32.95;;
72755;SDS011;60881;55.002;73.232;2022-09-21T00:57:16;93.85;;;31.25;;
72755;SDS011;60881;55.002;73.232;2022-09-21T00:59:49;103.82;;;31.42;;
72755;SDS011;60881;55.002;73.232;2022-09-21T01:02:17;86.88;;;30.58;;
72755;SDS011;60881;55.002;73.232;2022-09-21T01:04:44;88.95;;;30.48;;
72755;SDS011;60881;55.002;73.232;2022-09-21T01:07:16;92.07;;;30.33;;
72755;SDS011;60881;55.002;73.232;2022-09-21T01:09:46;87.38;;;28.90;;
72755;SDS011;60881;55.002;73.232;2022-09-21T01:18:15;98.32;;;29.52;;
72755;SDS011;60881;55.002;73.232;2022-09-21T01:24:37;112.95;;;34.28;;
72755;SDS011;60881;55.002;73.232;2022-09-21T01:27:08;108.00;;;33.75;;
72755;SDS011;60881;55.002;73.232;2022-09-21T01:29:58;100.05;;;32.78;;
72755;SDS011;60881;55.002;73.232;2022-09-21T01:32:39;104.45;;;32.83;;
72755;SDS011;60881;55.002;73.232;2022-09-21T01:37:59;102.07;;;31.98;;
72755;SDS011;60881;55.002;73.232;2022-09-21T01:40:36;90.50;;;31.52;;
72755;SDS011;60881;55.002;73.232;2022-09-21T01:43:07;97.65;;;31.90;;
72755;SDS011;60881;55.002;73.232;2022-09-21T01:45:40;107.47;;;31.40;;
72755;SDS011;60881;55.002;73.232;2022-09-21T01:48:10;104.40;;;31.15;;
72755;SDS011;60881;55.002;73.232;2022-09-21T01:50:44;97.22;;;32.53;;
72755;SDS011;60881;55.002;73.232;2022-09-21T01:53:19;106.88;;;32.08;;
72755;SDS011;60881;55.002;73.232;2022-09-21T01:55:52;98.50;;;29.95;;
72755;SDS011;60881;55.002;73.232;2022-09-21T02:01:08;96.13;;;30.80;;
72755;SDS011;60881;55.002;73.232;2022-09-21T02:03:39;92.72;;;29.40;;
72755;SDS011;60881;55.002;73.232;2022-09-21T02:06:09;112.10;;;30.50;;
72755;SDS011;60881;55.002;73.232;2022-09-21T02:09:01;87.43;;;29.67;;
72755;SDS011;60881;55.002;73.232;2022-09-21T02:11:39;97.65;;;30.13;;
72755;SDS011;60881;55.002;73.232;2022-09-21T02:14:15;101.50;;;31.80;;
72755;SDS011;60881;55.002;73.232;2022-09-21T02:16:56;115.57;;;31.27;;
72755;SDS011;60881;55.002;73.232;2022-09-21T02:19:52;111.28;;;32.95;;
72755;SDS011;60881;55.002;73.232;2022-09-21T02:28:11;103.93;;;31.95;;
72755;SDS011;60881;55.002;73.232;2022-09-21T02:31:31;88.82;;;31.65;;
72755;SDS011;60881;55.002;73.232;2022-09-21T02:39:29;96.95;;;31.65;;
72755;SDS011;60881;55.002;73.232;2022-09-21T02:42:15;118.63;;;31.95;;
72755;SDS011;60881;55.002;73.232;2022-09-21T02:45:13;106.50;;;33.40;;
72755;SDS011;60881;55.002;73.232;2022-09-21T02:47:47;112.18;;;33.03;;
72755;SDS011;60881;55.002;73.232;2022-09-21T02:50:20;111.10;;;31.92;;
72755;SDS011;60881;55.002;73.232;2022-09-21T02:52:56;104.70;;;32.65;;
72755;SDS011;60881;55.002;73.232;2022-09-21T02:55:24;100.68;;;32.08;;
72755;SDS011;60881;55.002;73.232;2022-09-21T02:57:51;102.45;;;30.55;;
72755;SDS011;60881;55.002;73.232;2022-09-21T03:00:30;107.85;;;30.85;;
72755;SDS011;60881;55.002;73.232;2022-09-21T03:03:14;119.00;;;31.45;;
72755;SDS011;60881;55.002;73.232;2022-09-21T03:05:53;107.18;;;31.27;;
72755;SDS011;60881;55.002;73.232;2022-09-21T03:08:31;95.57;;;27.25;;
72755;SDS011;60881;55.002;73.232;2022-09-21T03:10:59;106.82;;;25.20;;
72755;SDS011;60881;55.002;73.232;2022-09-21T03:13:32;95.43;;;26.05;;
72755;SDS011;60881;55.002;73.232;2022-09-21T03:16:05;86.07;;;21.80;;
72755;SDS011;60881;55.002;73.232;2022-09-21T03:18:37;85.28;;;19.35;;
72755;SDS011;60881;55.002;73.232;2022-09-21T03:21:05;87.32;;;17.75;;
72755;SDS011;60881;55.002;73.232;2022-09-21T03:23:33;77.28;;;17.83;;
72755;SDS011;60881;55.002;73.232;2022-09-21T03:26:01;83.32;;;16.83;;
72755;SDS011;60881;55.002;73.232;2022-09-21T03:28:28;92.07;;;15.27;;
72755;SDS011;60881;55.002;73.232;2022-09-21T03:30:55;92.90;;;14.82;;
72755;SDS011;60881;55.002;73.232;2022-09-21T03:33:22;98.88;;;14.45;;
72755;SDS011;60881;55.002;73.232;2022-09-21T03:36:00;98.47;;;13.02;;
72755;SDS011;60881;55.002;73.232;2022-09-21T03:38:26;103.90;;;13.95;;
72755;SDS011;60881;55.002;73.232;2022-09-21T03:40:53;105.20;;;12.88;;
72755;SDS011;60881;55.002;73.232;2022-09-21T03:43:23;109.00;;;13.32;;
72755;SDS011;60881;55.002;73.232;2022-09-21T03:45:51;93.68;;;12.18;;
72755;SDS011;60881;55.002;73.232;2022-09-21T03:48:19;93.25;;;11.70;;
72755;SDS011;60881;55.002;73.232;2022-09-21T03:50:46;98.82;;;11.23;;
72755;SDS011;60881;55.002;73.232;2022-09-21T03:53:13;78.07;;;9.35;;
72755;SDS011;60881;55.002;73.232;2022-09-21T03:55:50;79.35;;;10.05;;
72755;SDS011;60881;55.002;73.232;2022-09-21T03:58:26;68.47;;;9.57;;
72755;SDS011;60881;55.002;73.232;2022-09-21T04:00:53;65.03;;;9.45;;
72755;SDS011;60881;55.002;73.232;2022-09-21T04:03:19;71.15;;;9.73;;
72755;SDS011;60881;55.002;73.232;2022-09-21T04:05:45;49.38;;;8.13;;
72755;SDS011;60881;55.002;73.232;2022-09-21T04:08:13;68.43;;;9.05;;
72755;SDS011;60881;55.002;73.232;2022-09-21T04:10:50;68.97;;;8.93;;
72755;SDS011;60881;55.002;73.232;2022-09-21T04:13:16;61.50;;;9.07;;
72755;SDS011;60881;55.002;73.232;2022-09-21T04:15:52;74.03;;;9.80;;
72755;SDS011;60881;55.002;73.232;2022-09-21T04:18:24;73.28;;;9.48;;
72755;SDS011;60881;55.002;73.232;2022-09-21T04:21:00;62.15;;;8.90;;
72755;SDS011;60881;55.002;73.232;2022-09-21T04:23:32;53.95;;;8.48;;
72755;SDS011;60881;55.002;73.232;2022-09-21T04:26:00;48.85;;;8.02;;
72755;SDS011;60881;55.002;73.232;2022-09-21T04:28:37;48.90;;;7.32;;
72755;SDS011;60881;55.002;73.232;2022-09-21T04:31:13;59.78;;;6.60;;
72755;SDS011;60881;55.002;73.232;2022-09-21T04:33:43;50.53;;;7.13;;
72755;SDS011;60881;55.002;73.232;2022-09-21T04:36:15;57.25;;;5.57;;
72755;SDS011;60881;55.002;73.232;2022-09-21T04:38:43;35.63;;;5.93;;
72755;SDS011;60881;55.002;73.232;2022-09-21T04:41:20;37.15;;;5.53;;
72755;SDS011;60881;55.002;73.232;2022-09-21T04:43:46;56.25;;;5.90;;
72755;SDS011;60881;55.002;73.232;2022-09-21T04:46:18;56.78;;;5.40;;
72755;SDS011;60881;55.002;73.232;2022-09-21T04:48:57;38.55;;;5.85;;
72755;SDS011;60881;55.002;73.232;2022-09-21T04:51:34;39.33;;;5.35;;
72755;SDS011;60881;55.002;73.232;2022-09-21T04:54:01;44.45;;;5.03;;
72755;SDS011;60881;55.002;73.232;2022-09-21T04:56:29;48.38;;;5.65;;
72755;SDS011;60881;55.002;73.232;2022-09-21T04:58:56;44.88;;;5.03;;
72755;SDS011;60881;55.002;73.232;2022-09-21T05:01:22;41.30;;;5.13;;
72755;SDS011;60881;55.002;73.232;2022-09-21T05:03:48;56.20;;;4.97;;
72755;SDS011;60881;55.002;73.232;2022-09-21T05:06:18;49.20;;;5.18;;
72755;SDS011;60881;55.002;73.232;2022-09-21T05:08:45;50.47;;;5.30;;
72755;SDS011;60881;55.002;73.232;2022-09-21T05:11:29;38.88;;;5.00;;
72755;SDS011;60881;55.002;73.232;2022-09-21T05:13:56;35.42;;;7.82;;
72755;SDS011;60881;55.002;73.232;2022-09-21T05:16:30;47.53;;;5.07;;
72755;SDS011;60881;55.002;73.232;2022-09-21T05:19:06;43.17;;;4.40;;
72755;SDS011;60881;55.002;73.232;2022-09-21T05:21:34;43.90;;;4.47;;
72755;SDS011;60881;55.002;73.232;2022-09-21T05:24:01;36.63;;;4.13;;
72755;SDS011;60881;55.002;73.232;2022-09-21T05:26:38;28.70;;;3.92;;
72755;SDS011;60881;55.002;73.232;2022-09-21T05:29:14;27.17;;;4.32;;
72755;SDS011;60881;55.002;73.232;2022-09-21T05:31:55;16.45;;;3.40;;
72755;SDS011;60881;55.002;73.232;2022-09-21T05:40:00;35.28;;;4.70;;
72755;SDS011;60881;55.002;73.232;2022-09-21T05:42:26;26.35;;;3.47;;
72755;SDS011;60881;55.002;73.232;2022-09-21T05:44:53;36.50;;;3.70;;
72755;SDS011;60881;55.002;73.232;2022-09-21T05:47:25;50.20;;;3.67;;
72755;SDS011;60881;55.002;73.232;2022-09-21T05:52:53;32.85;;;3.05;;
72755;SDS011;60881;55.002;73.232;2022-09-21T06:03:41;29.58;;;3.10;;
72755;SDS011;60881;55.002;73.232;2022-09-21T06:06:08;32.47;;;2.60;;
72755;SDS011;60881;55.002;73.232;2022-09-21T06:08:35;12.50;;;2.17;;
72755;SDS011;60881;55.002;73.232;2022-09-21T06:11:01;20.00;;;2.28;;
72755;SDS011;60881;55.002;73.232;2022-09-21T06:13:29;24.05;;;2.60;;
72755;SDS011;60881;55.002;73.232;2022-09-21T06:15:55;25.58;;;2.53;;
72755;SDS011;60881;55.002;73.232;2022-09-21T06:18:23;20.10;;;2.05;;
72755;SDS011;60881;55.002;73.232;2022-09-21T06:20:50;21.52;;;1.95;;
72755;SDS011;60881;55.002;73.232;2022-09-21T06:23:18;22.08;;;2.38;;
72755;SDS011;60881;55.002;73.232;2022-09-21T06:25:51;22.35;;;1.77;;
72755;SDS011;60881;55.002;73.232;2022-09-21T06:28:28;18.95;;;2.30;;
72755;SDS011;60881;55.002;73.232;2022-09-21T06:30:55;27.88;;;3.40;;
72755;SDS011;60881;55.002;73.232;2022-09-21T06:33:24;29.25;;;3.10;;
72755;SDS011;60881;55.002;73.232;2022-09-21T06:35:57;14.27;;;2.60;;
72755;SDS011;60881;55.002;73.232;2022-09-21T06:38:25;16.65;;;2.05;;
72755;SDS011;60881;55.002;73.232;2022-09-21T06:40:54;23.13;;;2.53;;
72755;SDS011;60881;55.002;73.232;2022-09-21T06:43:21;30.08;;;2.38;;
72755;SDS011;60881;55.002;73.232;2022-09-21T06:45:55;15.60;;;2.42;;
72755;SDS011;60881;55.002;73.232;2022-09-21T06:48:23;24.83;;;1.80;;
72755;SDS011;60881;55.002;73.232;2022-09-21T06:50:50;22.83;;;2.10;;
72755;SDS011;60881;55.002;73.232;2022-09-21T06:53:17;14.90;;;2.15;;
72755;SDS011;60881;55.002;73.232;2022-09-21T06:55:52;20.00;;;2.10;;
72755;SDS011;60881;55.002;73.232;2022-09-21T06:58:19;36.50;;;2.33;;
72755;SDS011;60881;55.002;73.232;2022-09-21T07:00:45;24.50;;;2.00;;
72755;SDS011;60881;55.002;73.232;2022-09-21T07:03:13;20.60;;;2.25;;
72755;SDS011;60881;55.002;73.232;2022-09-21T07:05:43;34.95;;;2.28;;
72755;SDS011;60881;55.002;73.232;2022-09-21T07:08:12;26.98;;;2.35;;
72755;SDS011;60881;55.002;73.232;2022-09-21T07:10:44;21.25;;;1.75;;
72755;SDS011;60881;55.002;73.232;2022-09-21T07:13:10;30.40;;;2.15;;
72755;SDS011;60881;55.002;73.232;2022-09-21T07:15:36;24.63;;;1.95;;
72755;SDS011;60881;55.002;73.232;2022-09-21T07:18:10;15.68;;;2.83;;
72755;SDS011;60881;55.002;73.232;2022-09-21T07:20:39;16.63;;;2.13;;
72755;SDS011;60881;55.002;73.232;2022-09-21T07:23:12;17.92;;;2.40;;
72755;SDS011;60881;55.002;73.232;2022-09-21T07:25:44;20.13;;;2.15;;
72755;SDS011;60881;55.002;73.232;2022-09-21T07:28:13;23.10;;;2.22;;
72755;SDS011;60881;55.002;73.232;2022-09-21T07:30:41;19.42;;;2.45;;
72755;SDS011;60881;55.002;73.232;2022-09-21T07:33:08;13.75;;;2.08;;
72755;SDS011;60881;55.002;73.232;2022-09-21T07:35:34;32.28;;;2.20;;
72755;SDS011;60881;55.002;73.232;2022-09-21T07:38:02;39.45;;;2.47;;
72755;SDS011;60881;55.002;73.232;2022-09-21T07:40:32;24.00;;;2.35;;
72755;SDS011;60881;55.002;73.232;2022-09-21T07:43:00;29.77;;;2.83;;
72755;SDS011;60881;55.002;73.232;2022-09-21T07:45:29;23.67;;;5.57;;
72755;SDS011;60881;55.002;73.232;2022-09-21T07:48:02;41.28;;;2.33;;
72755;SDS011;60881;55.002;73.232;2022-09-21T07:50:30;35.08;;;1.98;;
72755;SDS011;60881;55.002;73.232;2022-09-21T07:52:58;22.58;;;1.65;;
72755;SDS011;60881;55.002;73.232;2022-09-21T07:55:26;15.65;;;2.00;;
72755;SDS011;60881;55.002;73.232;2022-09-21T07:57:52;21.02;;;2.22;;
72755;SDS011;60881;55.002;73.232;2022-09-21T08:00:42;32.15;;;2.55;;
72755;SDS011;60881;55.002;73.232;2022-09-21T08:03:09;16.58;;;2.08;;
72755;SDS011;60881;55.002;73.232;2022-09-21T08:05:37;23.90;;;2.20;;
72755;SDS011;60881;55.002;73.232;2022-09-21T08:08:03;22.25;;;2.15;;
72755;SDS011;60881;55.002;73.232;2022-09-21T08:10:30;29.27;;;2.63;;
72755;SDS011;60881;55.002;73.232;2022-09-21T08:12:57;18.70;;;2.08;;
72755;SDS011;60881;55.002;73.232;2022-09-21T08:15:24;17.63;;;1.80;;
72755;SDS011;60881;55.002;73.232;2022-09-21T08:17:53;34.13;;;2.22;;
72755;SDS011;60881;55.002;73.232;2022-09-21T08:20:21;16.45;;;2.00;;
72755;SDS011;60881;55.002;73.232;2022-09-21T08:22:48;23.63;;;1.92;;
72755;SDS011;60881;55.002;73.232;2022-09-21T08:25:14;30.45;;;2.30;;
72755;SDS011;60881;55.002;73.232;2022-09-21T08:27:57;38.72;;;2.10;;
72755;SDS011;60881;55.002;73.232;2022-09-21T08:30:26;24.77;;;2.33;;
72755;SDS011;60881;55.002;73.232;2022-09-21T08:32:53;19.08;;;2.33;;
72755;SDS011;60881;55.002;73.232;2022-09-21T08:35:27;31.35;;;2.45;;
72755;SDS011;60881;55.002;73.232;2022-09-21T08:37:54;24.17;;;3.10;;
72755;SDS011;60881;55.002;73.232;2022-09-21T08:40:20;21.05;;;2.85;;
72755;SDS011;60881;55.002;73.232;2022-09-21T08:43:01;26.75;;;3.10;;
72755;SDS011;60881;55.002;73.232;2022-09-21T08:45:43;16.15;;;2.20;;
72755;SDS011;60881;55.002;73.232;2022-09-21T08:48:22;36.88;;;2.53;;
72755;SDS011;60881;55.002;73.232;2022-09-21T08:50:58;25.48;;;2.40;;
72755;SDS011;60881;55.002;73.232;2022-09-21T08:53:43;48.22;;;2.92;;
72755;SDS011;60881;55.002;73.232;2022-09-21T08:56:11;26.08;;;3.22;;
72755;SDS011;60881;55.002;73.232;2022-09-21T08:58:39;18.65;;;2.78;;
72755;SDS011;60881;55.002;73.232;2022-09-21T09:20:35;37.15;;;2.75;;
72755;SDS011;60881;55.002;73.232;2022-09-21T09:23:08;15.60;;;2.60;;
72755;SDS011;60881;55.002;73.232;2022-09-21T09:25:53;17.85;;;2.53;;
72755;SDS011;60881;55.002;73.232;2022-09-21T09:28:41;18.13;;;2.75;;
72755;SDS011;60881;55.002;73.232;2022-09-21T09:31:17;26.25;;;2.17;;
72755;SDS011;60881;55.002;73.232;2022-09-21T09:36:28;26.00;;;2.38;;
72755;SDS011;60881;55.002;73.232;2022-09-21T09:39:01;23.55;;;2.30;;
72755;SDS011;60881;55.002;73.232;2022-09-21T09:44:37;22.30;;;2.00;;
72755;SDS011;60881;55.002;73.232;2022-09-21T09:53:05;31.80;;;4.55;;
72755;SDS011;60881;55.002;73.232;2022-09-21T09:55:39;18.10;;;2.80;;
72755;SDS011;60881;55.002;73.232;2022-09-21T09:58:36;27.88;;;2.63;;
72755;SDS011;60881;55.002;73.232;2022-09-21T10:04:06;25.75;;;2.80;;
72755;SDS011;60881;55.002;73.232;2022-09-21T10:06:38;33.05;;;3.58;;
72755;SDS011;60881;55.002;73.232;2022-09-21T10:12:18;41.40;;;3.10;;
72755;SDS011;60881;55.002;73.232;2022-09-21T10:14:52;36.65;;;2.53;;
72755;SDS011;60881;55.002;73.232;2022-09-21T10:17:25;17.15;;;2.80;;
72755;SDS011;60881;55.002;73.232;2022-09-21T10:19:58;16.25;;;2.78;;
72755;SDS011;60881;55.002;73.232;2022-09-21T10:22:26;42.83;;;3.22;;
72755;SDS011;60881;55.002;73.232;2022-09-21T10:24:54;60.53;;;2.67;;
72755;SDS011;60881;55.002;73.232;2022-09-21T10:27:25;52.72;;;2.80;;
72755;SDS011;60881;55.002;73.232;2022-09-21T10:29:53;29.48;;;2.85;;
72755;SDS011;60881;55.002;73.232;2022-09-21T10:32:21;45.38;;;2.97;;
72755;SDS011;60881;55.002;73.232;2022-09-21T10:37:43;28.92;;;2.50;;
72755;SDS011;60881;55.002;73.232;2022-09-21T10:42:56;31.45;;;2.45;;
72755;SDS011;60881;55.002;73.232;2022-09-21T10:45:27;23.98;;;2.03;;
72755;SDS011;60881;55.002;73.232;2022-09-21T10:47:56;37.85;;;2.30;;
72755;SDS011;60881;55.002;73.232;2022-09-21T10:52:53;24.05;;;2.15;;
72755;SDS011;60881;55.002;73.232;2022-09-21T10:55:58;42.75;;;2.80;;
72755;SDS011;60881;55.002;73.232;2022-09-21T10:58:28;29.25;;;2.58;;
72755;SDS011;60881;55.002;73.232;2022-09-21T11:01:08;15.13;;;2.15;;
72755;SDS011;60881;55.002;73.232;2022-09-21T11:06:28;15.20;;;2.33;;
72755;SDS011;60881;55.002;73.232;2022-09-21T11:09:11;43.80;;;3.00;;
72755;SDS011;60881;55.002;73.232;2022-09-21T11:11:48;55.72;;;3.70;;
72755;SDS011;60881;55.002;73.232;2022-09-21T11:14:26;57.22;;;2.58;;
72755;SDS011;60881;55.002;73.232;2022-09-21T11:23:03;24.55;;;2.65;;
72755;SDS011;60881;55.002;73.232;2022-09-21T11:26:07;24.67;;;2.78;;
72755;SDS011;60881;55.002;73.232;2022-09-21T11:31:30;17.83;;;2.78;;
72755;SDS011;60881;55.002;73.232;2022-09-21T11:37:04;33.22;;;3.28;;
72755;SDS011;60881;55.002;73.232;2022-09-21T11:45:01;19.35;;;2.42;;
72755;SDS011;60881;55.002;73.232;2022-09-21T11:47:54;29.67;;;2.30;;
72755;SDS011;60881;55.002;73.232;2022-09-21T11:50:50;26.92;;;2.08;;
72755;SDS011;60881;55.002;73.232;2022-09-21T11:57:18;52.65;;;7.72;;
72755;SDS011;60881;55.002;73.232;2022-09-21T12:20:32;27.75;;;2.38;;
72755;SDS011;60881;55.002;73.232;2022-09-21T12:23:27;35.92;;;2.97;;
72755;SDS011;60881;55.002;73.232;2022-09-21T12:26:13;32.45;;;3.60;;
72755;SDS011;60881;55.002;73.232;2022-09-21T12:31:46;30.20;;;3.90;;
72755;SDS011;60881;55.002;73.232;2022-09-21T12:34:41;33.40;;;3.60;;
72755;SDS011;60881;55.002;73.232;2022-09-21T12:42:28;41.65;;;3.63;;
72755;SDS011;60881;55.002;73.232;2022-09-21T12:45:16;29.85;;;3.08;;
72755;SDS011;60881;55.002;73.232;2022-09-21T12:47:54;32.78;;;2.95;;
72755;SDS011;60881;55.002;73.232;2022-09-21T12:50:26;34.83;;;3.08;;
72755;SDS011;60881;55.002;73.232;2022-09-21T12:53:01;35.20;;;3.55;;
72755;SDS011;60881;55.002;73.232;2022-09-21T12:55:31;50.17;;;3.67;;
72755;SDS011;60881;55.002;73.232;2022-09-21T12:58:15;74.30;;;3.60;;
72755;SDS011;60881;55.002;73.232;2022-09-21T13:00:56;64.32;;;4.63;;
72755;SDS011;60881;55.002;73.232;2022-09-21T13:09:17;67.65;;;4.63;;
72755;SDS011;60881;55.002;73.232;2022-09-21T13:14:32;57.90;;;4.95;;
72755;SDS011;60881;55.002;73.232;2022-09-21T13:17:02;51.28;;;3.80;;
72755;SDS011;60881;55.002;73.232;2022-09-21T13:19:35;50.03;;;4.05;;
72755;SDS011;60881;55.002;73.232;2022-09-21T13:22:12;48.38;;;3.00;;
72755;SDS011;60881;55.002;73.232;2022-09-21T13:30:28;22.75;;;3.00;;
72755;SDS011;60881;55.002;73.232;2022-09-21T13:33:03;38.50;;;4.00;;
72755;SDS011;60881;55.002;73.232;2022-09-21T13:54:16;68.65;;;7.43;;
72755;SDS011;60881;55.002;73.232;2022-09-21T13:56:49;69.22;;;10.43;;
72755;SDS011;60881;55.002;73.232;2022-09-21T13:59:24;92.43;;;11.40;;
72755;SDS011;60881;55.002;73.232;2022-09-21T14:01:58;99.90;;;12.93;;
72755;SDS011;60881;55.002;73.232;2022-09-21T14:04:26;65.82;;;9.88;;
72755;SDS011;60881;55.002;73.232;2022-09-21T14:06:56;85.97;;;11.88;;
72755;SDS011;60881;55.002;73.232;2022-09-21T14:09:29;73.38;;;13.25;;
72755;SDS011;60881;55.002;73.232;2022-09-21T14:12:09;121.78;;;14.38;;
72755;SDS011;60881;55.002;73.232;2022-09-21T14:14:44;67.60;;;10.73;;
72755;SDS011;60881;55.002;73.232;2022-09-21T14:20:35;63.10;;;11.32;;
72755;SDS011;60881;55.002;73.232;2022-09-21T14:23:25;91.35;;;13.82;;
72755;SDS011;60881;55.002;73.232;2022-09-21T14:25:54;71.47;;;11.85;;
72755;SDS011;60881;55.002;73.232;2022-09-21T14:31:00;62.72;;;12.43;;
72755;SDS011;60881;55.002;73.232;2022-09-21T14:33:55;82.93;;;11.93;;
72755;SDS011;60881;55.002;73.232;2022-09-21T14:36:32;64.78;;;14.18;;
72755;SDS011;60881;55.002;73.232;2022-09-21T14:39:27;91.97;;;25.73;;
72755;SDS011;60881;55.002;73.232;2022-09-21T14:42:26;73.30;;;13.98;;
72755;SDS011;60881;55.002;73.232;2022-09-21T14:45:00;81.60;;;13.95;;
72755;SDS011;60881;55.002;73.232;2022-09-21T14:50:34;46.15;;;8.65;;
72755;SDS011;60881;55.002;73.232;2022-09-21T14:58:39;44.53;;;12.50;;
72755;SDS011;60881;55.002;73.232;2022-09-21T15:04:11;66.68;;;17.90;;
72755;SDS011;60881;55.002;73.232;2022-09-21T15:07:08;72.47;;;18.67;;
72755;SDS011;60881;55.002;73.232;2022-09-21T15:10:13;61.72;;;19.08;;
72755;SDS011;60881;55.002;73.232;2022-09-21T15:13:13;70.32;;;17.98;;
72755;SDS011;60881;55.002;73.232;2022-09-21T15:18:32;76.82;;;17.55;;
72755;SDS011;60881;55.002;73.232;2022-09-21T15:21:25;62.17;;;16.98;;
72755;SDS011;60881;55.002;73.232;2022-09-21T15:23:54;84.68;;;24.35;;
72755;SDS011;60881;55.002;73.232;2022-09-21T15:26:28;77.22;;;21.58;;
72755;SDS011;60881;55.002;73.232;2022-09-21T15:28:59;94.05;;;20.65;;
72755;SDS011;60881;55.002;73.232;2022-09-21T15:31:31;80.90;;;21.08;;
72755;SDS011;60881;55.002;73.232;2022-09-21T15:34:05;87.13;;;23.92;;
72755;SDS011;60881;55.002;73.232;2022-09-21T15:36:34;92.13;;;32.53;;
72755;SDS011;60881;55.002;73.232;2022-09-21T15:39:04;90.30;;;29.13;;
72755;SDS011;60881;55.002;73.232;2022-09-21T15:41:38;102.55;;;27.33;;
72755;SDS011;60881;55.002;73.232;2022-09-21T15:44:14;95.15;;;28.98;;
72755;SDS011;60881;55.002;73.232;2022-09-21T15:46:44;112.22;;;28.30;;
72755;SDS011;60881;55.002;73.232;2022-09-21T15:49:16;111.72;;;24.08;;
72755;SDS011;60881;55.002;73.232;2022-09-21T15:51:47;82.93;;;22.42;;
72755;SDS011;60881;55.002;73.232;2022-09-21T15:54:36;83.75;;;21.80;;
72755;SDS011;60881;55.002;73.232;2022-09-21T16:02:58;78.82;;;21.60;;
72755;SDS011;60881;55.002;73.232;2022-09-21T16:05:45;90.50;;;20.10;;
72755;SDS011;60881;55.002;73.232;2022-09-21T16:13:42;80.03;;;14.80;;
72755;SDS011;60881;55.002;73.232;2022-09-21T16:16:28;92.53;;;13.90;;
72755;SDS011;60881;55.002;73.232;2022-09-21T16:19:06;89.32;;;13.57;;
72755;SDS011;60881;55.002;73.232;2022-09-21T16:21:38;108.55;;;16.80;;
72755;SDS011;60881;55.002;73.232;2022-09-21T16:24:17;101.70;;;17.48;;
72755;SDS011;60881;55.002;73.232;2022-09-21T16:26:57;115.65;;;17.55;;
72755;SDS011;60881;55.002;73.232;2022-09-21T16:29:27;100.63;;;15.30;;
72755;SDS011;60881;55.002;73.232;2022-09-21T16:34:43;91.57;;;15.85;;
72755;SDS011;60881;55.002;73.232;2022-09-21T16:39:50;90.03;;;16.52;;
72755;SDS011;60881;55.002;73.232;2022-09-21T16:42:18;92.13;;;19.48;;
72755;SDS011;60881;55.002;73.232;2022-09-21T16:44:46;92.85;;;20.40;;
72755;SDS011;60881;55.002;73.232;2022-09-21T16:47:14;110.68;;;19.77;;
72755;SDS011;60881;55.002;73.232;2022-09-21T16:49:51;100.90;;;18.90;;
72755;SDS011;60881;55.002;73.232;2022-09-21T16:52:22;91.40;;;17.17;;
72755;SDS011;60881;55.002;73.232;2022-09-21T16:54:49;90.43;;;16.95;;
72755;SDS011;60881;55.002;73.232;2022-09-21T16:57:16;102.75;;;16.67;;
72755;SDS011;60881;55.002;73.232;2022-09-21T16:59:49;94.40;;;16.03;;
72755;SDS011;60881;55.002;73.232;2022-09-21T17:02:17;103.80;;;16.13;;
72755;SDS011;60881;55.002;73.232;2022-09-21T17:04:43;94.40;;;16.35;;
72755;SDS011;60881;55.002;73.232;2022-09-21T17:07:11;90.55;;;15.63;;
72755;SDS011;60881;55.002;73.232;2022-09-21T17:09:42;78.57;;;13.73;;
72755;SDS011;60881;55.002;73.232;2022-09-21T17:12:13;91.20;;;15.27;;
72755;SDS011;60881;55.002;73.232;2022-09-21T17:14:43;104.20;;;15.18;;
72755;SDS011;60881;55.002;73.232;2022-09-21T17:17:11;79.22;;;15.38;;
72755;SDS011;60881;55.002;73.232;2022-09-21T17:19:43;87.15;;;15.10;;
72755;SDS011;60881;55.002;73.232;2022-09-21T17:22:21;78.65;;;14.52;;
72755;SDS011;60881;55.002;73.232;2022-09-21T17:24:51;98.63;;;14.65;;
72755;SDS011;60881;55.002;73.232;2022-09-21T17:27:26;80.78;;;14.38;;
72755;SDS011;60881;55.002;73.232;2022-09-21T17:29:53;98.57;;;15.10;;
72755;SDS011;60881;55.002;73.232;2022-09-21T17:32:31;104.13;;;15.00;;
72755;SDS011;60881;55.002;73.232;2022-09-21T17:35:16;84.13;;;15.02;;
72755;SDS011;60881;55.002;73.232;2022-09-21T17:38:05;77.35;;;13.02;;
72755;SDS011;60881;55.002;73.232;2022-09-21T17:40:34;94.82;;;13.27;;
72755;SDS011;60881;55.002;73.232;2022-09-21T17:48:38;80.50;;;13.30;;
72755;SDS011;60881;55.002;73.232;2022-09-21T17:51:25;88.28;;;14.70;;
72755;SDS011;60881;55.002;73.232;2022-09-21T17:54:10;63.70;;;12.93;;
72755;SDS011;60881;55.002;73.232;2022-09-21T17:56:46;68.68;;;13.30;;
72755;SDS011;60881;55.002;73.232;2022-09-21T17:59:30;90.80;;;13.23;;
72755;SDS011;60881;55.002;73.232;2022-09-21T18:01:59;75.45;;;13.93;;
72755;SDS011;60881;55.002;73.232;2022-09-21T18:04:27;73.57;;;13.88;;
72755;SDS011;60881;55.002;73.232;2022-09-21T18:07:02;84.93;;;15.30;;
72755;SDS011;60881;55.002;73.232;2022-09-21T18:09:29;86.43;;;14.50;;
72755;SDS011;60881;55.002;73.232;2022-09-21T18:17:56;74.72;;;16.02;;
72755;SDS011;60881;55.002;73.232;2022-09-21T18:23:43;89.35;;;17.30;;
72755;SDS011;60881;55.002;73.232;2022-09-21T18:26:37;93.05;;;16.65;;
72755;SDS011;60881;55.002;73.232;2022-09-21T18:29:22;90.05;;;16.30;;
72755;SDS011;60881;55.002;73.232;2022-09-21T18:31:58;69.53;;;14.05;;
72755;SDS011;60881;55.002;73.232;2022-09-21T18:37:56;65.57;;;11.85;;
72755;SDS011;60881;55.002;73.232;2022-09-21T18:46:01;74.35;;;12.98;;
72755;SDS011;60881;55.002;73.232;2022-09-21T18:51:30;79.35;;;11.10;;